sensor_id;sensor_type;location;lat;lon;timestamp;pressure;altitude;pressure_sealevel;temperature;humidity
10348;BME280;5220;43.192;23.284;2024-02-26T00:01:46;96433.16;;;14.36;100.00
10348;BME280;5220;43.192;23.284;2024-02-26T00:04:13;96428.22;;;14.33;100.00
10348;BME280;5220;43.192;23.284;2024-02-26T00:06:40;96431.38;;;14.37;100.00
10348;BME280;5220;43.192;23.284;2024-02-26T00:09:07;96425.97;;;14.38;100.00
10348;BME280;5220;43.192;23.284;2024-02-26T00:11:33;96421.03;;;14.35;100.00
10348;BME280;5220;43.192;23.284;2024-02-26T00:14:00;96424.38;;;14.28;100.00
10348;BME280;5220;43.192;23.284;2024-02-26T00:16:27;96425.94;;;14.21;100.00
10348;BME280;5220;43.192;23.284;2024-02-26T00:18:55;96425.09;;;14.20;100.00
10348;BME280;5220;43.192;23.284;2024-02-26T00:21:21;96425.41;;;14.17;100.00
10348;BME280;5220;43.192;23.284;2024-02-26T00:23:49;96414.94;;;14.17;100.00
10348;BME280;5220;43.192;23.284;2024-02-26T00:26:16;96426.16;;;14.27;100.00
10348;BME280;5220;43.192;23.284;2024-02-26T00:28:43;96432.22;;;14.10;100.00
10348;BME280;5220;43.192;23.284;2024-02-26T00:31:09;96427.59;;;14.22;100.00
10348;BME280;5220;43.192;23.284;2024-02-26T00:33:37;96422.72;;;14.27;100.00
10348;BME280;5220;43.192;23.284;2024-02-26T00:36:05;96423.91;;;14.15;100.00
10348;BME280;5220;43.192;23.284;2024-02-26T00:38:32;96426.53;;;14.32;100.00
10348;BME280;5220;43.192;23.284;2024-02-26T00:40:59;96430.56;;;14.27;100.00
10348;BME280;5220;43.192;23.284;2024-02-26T00:43:25;96416.66;;;14.26;100.00
10348;BME280;5220;43.192;23.284;2024-02-26T00:45:52;96419.69;;;14.31;100.00
10348;BME280;5220;43.192;23.284;2024-02-26T00:48:19;96416.66;;;14.26;100.00
10348;BME280;5220;43.192;23.284;2024-02-26T00:50:45;96411.28;;;14.28;100.00
10348;BME280;5220;43.192;23.284;2024-02-26T00:53:13;96407.19;;;14.25;100.00
10348;BME280;5220;43.192;23.284;2024-02-26T00:55:40;96399.97;;;14.37;100.00
10348;BME280;5220;43.192;23.284;2024-02-26T00:58:07;96399.53;;;14.41;100.00
10348;BME280;5220;43.192;23.284;2024-02-26T01:00:33;96396.19;;;14.22;100.00
10348;BME280;5220;43.192;23.284;2024-02-26T01:03:00;96399.19;;;14.27;100.00
10348;BME280;5220;43.192;23.284;2024-02-26T01:05:27;96395.28;;;14.40;100.00
10348;BME280;5220;43.192;23.284;2024-02-26T01:07:54;96396.16;;;14.49;100.00
10348;BME280;5220;43.192;23.284;2024-02-26T01:10:22;96390.34;;;14.37;100.00
10348;BME280;5220;43.192;23.284;2024-02-26T01:12:49;96380.34;;;14.23;100.00
10348;BME280;5220;43.192;23.284;2024-02-26T01:15:15;96384.28;;;14.10;100.00
10348;BME280;5220;43.192;23.284;2024-02-26T01:17:44;96389.69;;;14.26;100.00
10348;BME280;5220;43.192;23.284;2024-02-26T01:20:11;96399.34;;;14.25;100.00
10348;BME280;5220;43.192;23.284;2024-02-26T01:22:37;96384.31;;;14.27;100.00
10348;BME280;5220;43.192;23.284;2024-02-26T01:25:06;96390.75;;;14.33;100.00
10348;BME280;5220;43.192;23.284;2024-02-26T01:27:36;96382.16;;;14.23;100.00
10348;BME280;5220;43.192;23.284;2024-02-26T01:30:03;96383.03;;;14.31;100.00
10348;BME280;5220;43.192;23.284;2024-02-26T01:32:30;96386.44;;;14.14;100.00
10348;BME280;5220;43.192;23.284;2024-02-26T01:34:57;96389.84;;;14.24;100.00
10348;BME280;5220;43.192;23.284;2024-02-26T01:37:24;96384.34;;;14.00;100.00
10348;BME280;5220;43.192;23.284;2024-02-26T01:39:50;96388.69;;;14.09;100.00
10348;BME280;5220;43.192;23.284;2024-02-26T01:42:17;96386.38;;;14.06;100.00
10348;BME280;5220;43.192;23.284;2024-02-26T01:44:45;96381.91;;;14.16;100.00
10348;BME280;5220;43.192;23.284;2024-02-26T01:47:13;96383.59;;;14.08;100.00
10348;BME280;5220;43.192;23.284;2024-02-26T01:49:40;96387.78;;;14.00;100.00
10348;BME280;5220;43.192;23.284;2024-02-26T01:52:08;96387.44;;;14.13;100.00
10348;BME280;5220;43.192;23.284;2024-02-26T01:54:37;96380.97;;;14.08;100.00
10348;BME280;5220;43.192;23.284;2024-02-26T01:57:05;96385.63;;;14.14;100.00
10348;BME280;5220;43.192;23.284;2024-02-26T01:59:34;96388.25;;;14.14;100.00
10348;BME280;5220;43.192;23.284;2024-02-26T02:02:06;96381.91;;;14.16;100.00
10348;BME280;5220;43.192;23.284;2024-02-26T02:04:34;96383.09;;;14.04;100.00
10348;BME280;5220;43.192;23.284;2024-02-26T02:07:01;96380.00;;;13.91;100.00
10348;BME280;5220;43.192;23.284;2024-02-26T02:09:28;96389.53;;;13.82;100.00
10348;BME280;5220;43.192;23.284;2024-02-26T02:11:55;96380.69;;;14.11;100.00
10348;BME280;5220;43.192;23.284;2024-02-26T02:14:22;96383.31;;;14.11;100.00
10348;BME280;5220;43.192;23.284;2024-02-26T02:16:49;96382.81;;;14.25;100.00
10348;BME280;5220;43.192;23.284;2024-02-26T02:19:17;96375.78;;;14.25;100.00
10348;BME280;5220;43.192;23.284;2024-02-26T02:21:45;96383.59;;;14.08;100.00
10348;BME280;5220;43.192;23.284;2024-02-26T02:24:11;96386.91;;;14.27;100.00
10348;BME280;5220;43.192;23.284;2024-02-26T02:26:38;96390.47;;;14.36;99.11
10348;BME280;5220;43.192;23.284;2024-02-26T02:29:06;96374.63;;;14.37;100.00
10348;BME280;5220;43.192;23.284;2024-02-26T02:31:34;96370.47;;;13.72;100.00
10348;BME280;5220;43.192;23.284;2024-02-26T02:34:01;96383.34;;;13.83;100.00
10348;BME280;5220;43.192;23.284;2024-02-26T02:36:28;96383.22;;;14.02;100.00
10348;BME280;5220;43.192;23.284;2024-02-26T02:38:56;96384.00;;;14.13;100.00
10348;BME280;5220;43.192;23.284;2024-02-26T02:41:23;96380.91;;;13.99;100.00
10348;BME280;5220;43.192;23.284;2024-02-26T02:43:51;96387.63;;;14.02;100.00
10348;BME280;5220;43.192;23.284;2024-02-26T02:46:19;96387.88;;;14.09;100.00
10348;BME280;5220;43.192;23.284;2024-02-26T02:48:45;96392.53;;;13.87;99.42
10348;BME280;5220;43.192;23.284;2024-02-26T02:51:12;96392.28;;;14.08;100.00
10348;BME280;5220;43.192;23.284;2024-02-26T02:53:39;96399.69;;;14.13;100.00
10348;BME280;5220;43.192;23.284;2024-02-26T02:56:07;96393.25;;;14.07;100.00
10348;BME280;5220;43.192;23.284;2024-02-26T02:58:34;96394.00;;;13.72;100.00
10348;BME280;5220;43.192;23.284;2024-02-26T03:01:00;96392.66;;;13.22;100.00
10348;BME280;5220;43.192;23.284;2024-02-26T03:03:27;96395.25;;;13.31;100.00
10348;BME280;5220;43.192;23.284;2024-02-26T03:05:54;96397.94;;;13.49;100.00
10348;BME280;5220;43.192;23.284;2024-02-26T03:08:21;96393.69;;;13.48;100.00
10348;BME280;5220;43.192;23.284;2024-02-26T03:10:49;96388.19;;;13.51;100.00
10348;BME280;5220;43.192;23.284;2024-02-26T03:13:17;96391.13;;;13.38;100.00
10348;BME280;5220;43.192;23.284;2024-02-26T03:15:44;96385.00;;;13.11;100.00
10348;BME280;5220;43.192;23.284;2024-02-26T03:18:10;96382.38;;;13.01;100.00
10348;BME280;5220;43.192;23.284;2024-02-26T03:20:37;96375.06;;;13.24;100.00
10348;BME280;5220;43.192;23.284;2024-02-26T03:23:04;96377.09;;;13.30;100.00
10348;BME280;5220;43.192;23.284;2024-02-26T03:25:31;96378.22;;;13.27;100.00
10348;BME280;5220;43.192;23.284;2024-02-26T03:27:57;96374.34;;;13.31;100.00
10348;BME280;5220;43.192;23.284;2024-02-26T03:30:25;96377.34;;;13.36;100.00
10348;BME280;5220;43.192;23.284;2024-02-26T03:32:52;96378.84;;;13.39;100.00
10348;BME280;5220;43.192;23.284;2024-02-26T03:35:19;96374.84;;;12.98;100.00
10348;BME280;5220;43.192;23.284;2024-02-26T03:37:46;96381.72;;;12.80;100.00
10348;BME280;5220;43.192;23.284;2024-02-26T03:40:13;96383.63;;;12.87;100.00
10348;BME280;5220;43.192;23.284;2024-02-26T03:42:40;96385.13;;;13.00;100.00
10348;BME280;5220;43.192;23.284;2024-02-26T03:45:07;96380.47;;;12.93;100.00
10348;BME280;5220;43.192;23.284;2024-02-26T03:47:37;96393.25;;;12.77;100.00
10348;BME280;5220;43.192;23.284;2024-02-26T03:50:04;96382.81;;;12.68;100.00
10348;BME280;5220;43.192;23.284;2024-02-26T03:52:31;96387.22;;;12.77;100.00
10348;BME280;5220;43.192;23.284;2024-02-26T03:54:58;96384.75;;;12.85;100.00
10348;BME280;5220;43.192;23.284;2024-02-26T03:57:25;96383.19;;;11.96;100.00
10348;BME280;5220;43.192;23.284;2024-02-26T03:59:51;96386.25;;;12.39;100.00
10348;BME280;5220;43.192;23.284;2024-02-26T04:02:19;96403.16;;;12.64;100.00
10348;BME280;5220;43.192;23.284;2024-02-26T04:04:47;96400.13;;;12.30;100.00
10348;BME280;5220;43.192;23.284;2024-02-26T04:07:14;96397.13;;;12.35;100.00
10348;BME280;5220;43.192;23.284;2024-02-26T04:09:40;96391.31;;;12.03;100.00
10348;BME280;5220;43.192;23.284;2024-02-26T04:12:09;96392.44;;;12.29;100.00
10348;BME280;5220;43.192;23.284;2024-02-26T04:14:35;96377.63;;;12.39;100.00
10348;BME280;5220;43.192;23.284;2024-02-26T04:17:03;96385.88;;;12.54;100.00
10348;BME280;5220;43.192;23.284;2024-02-26T04:19:29;96387.72;;;11.94;100.00
10348;BME280;5220;43.192;23.284;2024-02-26T04:21:57;96383.94;;;11.38;100.00
10348;BME280;5220;43.192;23.284;2024-02-26T04:24:24;96386.63;;;11.97;100.00
10348;BME280;5220;43.192;23.284;2024-02-26T04:26:51;96385.44;;;12.10;100.00
10348;BME280;5220;43.192;23.284;2024-02-26T04:29:17;96387.84;;;11.93;100.00
10348;BME280;5220;43.192;23.284;2024-02-26T04:31:44;96408.34;;;12.16;100.00
10348;BME280;5220;43.192;23.284;2024-02-26T04:34:12;96403.25;;;12.15;100.00
10348;BME280;5220;43.192;23.284;2024-02-26T04:36:38;96407.69;;;11.74;100.00
10348;BME280;5220;43.192;23.284;2024-02-26T04:39:06;96398.69;;;11.88;100.00
10348;BME280;5220;43.192;23.284;2024-02-26T04:41:33;96398.72;;;12.07;100.00
10348;BME280;5220;43.192;23.284;2024-02-26T04:44:00;96395.41;;;11.96;100.00
10348;BME280;5220;43.192;23.284;2024-02-26T04:46:27;96396.41;;;12.04;100.00
10348;BME280;5220;43.192;23.284;2024-02-26T04:48:54;96400.50;;;11.97;100.00
10348;BME280;5220;43.192;23.284;2024-02-26T04:51:21;96391.50;;;11.41;100.00
10348;BME280;5220;43.192;23.284;2024-02-26T04:53:47;96391.81;;;11.87;100.00
10348;BME280;5220;43.192;23.284;2024-02-26T04:56:15;96391.31;;;11.32;100.00
10348;BME280;5220;43.192;23.284;2024-02-26T04:58:42;96398.22;;;11.43;100.00
10348;BME280;5220;43.192;23.284;2024-02-26T05:01:09;96397.69;;;11.19;100.00
10348;BME280;5220;43.192;23.284;2024-02-26T05:03:36;96398.28;;;11.62;100.00
10348;BME280;5220;43.192;23.284;2024-02-26T05:06:04;96398.38;;;11.81;100.00
10348;BME280;5220;43.192;23.284;2024-02-26T05:08:31;96412.97;;;11.94;100.00
10348;BME280;5220;43.192;23.284;2024-02-26T05:10:59;96406.41;;;12.09;100.00
10348;BME280;5220;43.192;23.284;2024-02-26T05:13:29;96403.16;;;11.46;100.00
10348;BME280;5220;43.192;23.284;2024-02-26T05:15:56;96414.63;;;11.64;100.00
10348;BME280;5220;43.192;23.284;2024-02-26T05:18:22;96422.00;;;11.90;100.00
10348;BME280;5220;43.192;23.284;2024-02-26T05:20:49;96421.34;;;11.97;100.00
10348;BME280;5220;43.192;23.284;2024-02-26T05:23:16;96422.97;;;11.89;100.00
10348;BME280;5220;43.192;23.284;2024-02-26T05:25:43;96426.16;;;12.02;100.00
10348;BME280;5220;43.192;23.284;2024-02-26T05:28:12;96431.13;;;12.05;100.00
10348;BME280;5220;43.192;23.284;2024-02-26T05:30:42;96440.72;;;12.04;100.00
10348;BME280;5220;43.192;23.284;2024-02-26T05:33:08;96441.41;;;12.16;100.00
10348;BME280;5220;43.192;23.284;2024-02-26T05:35:35;96437.59;;;12.20;100.00
10348;BME280;5220;43.192;23.284;2024-02-26T05:38:02;96438.28;;;12.22;100.00
10348;BME280;5220;43.192;23.284;2024-02-26T05:40:29;96443.63;;;12.20;100.00
10348;BME280;5220;43.192;23.284;2024-02-26T05:42:56;96454.59;;;12.24;100.00
10348;BME280;5220;43.192;23.284;2024-02-26T05:45:22;96447.75;;;12.23;100.00
10348;BME280;5220;43.192;23.284;2024-02-26T05:47:50;96454.59;;;12.24;100.00
10348;BME280;5220;43.192;23.284;2024-02-26T05:50:17;96465.84;;;12.15;100.00
10348;BME280;5220;43.192;23.284;2024-02-26T05:52:44;96479.56;;;12.07;100.00
10348;BME280;5220;43.192;23.284;2024-02-26T05:55:10;96474.06;;;11.80;100.00
10348;BME280;5220;43.192;23.284;2024-02-26T05:57:38;96473.31;;;11.68;100.00
10348;BME280;5220;43.192;23.284;2024-02-26T06:00:06;96487.97;;;11.90;100.00
10348;BME280;5220;43.192;23.284;2024-02-26T06:02:32;96480.34;;;11.98;100.00
10348;BME280;5220;43.192;23.284;2024-02-26T06:05:00;96489.78;;;11.99;100.00
10348;BME280;5220;43.192;23.284;2024-02-26T06:07:28;96491.72;;;11.97;100.00
10348;BME280;5220;43.192;23.284;2024-02-26T06:09:55;96490.25;;;12.04;100.00
10348;BME280;5220;43.192;23.284;2024-02-26T06:12:21;96495.19;;;12.07;100.00
10348;BME280;5220;43.192;23.284;2024-02-26T06:14:48;96484.63;;;12.09;100.00
10348;BME280;5220;43.192;23.284;2024-02-26T06:17:15;96490.94;;;12.06;100.00
10348;BME280;5220;43.192;23.284;2024-02-26T06:19:42;96496.44;;;12.13;100.00
10348;BME280;5220;43.192;23.284;2024-02-26T06:22:10;96495.06;;;12.18;100.00
10348;BME280;5220;43.192;23.284;2024-02-26T06:24:36;96491.53;;;12.19;100.00
10348;BME280;5220;43.192;23.284;2024-02-26T06:27:03;96496.47;;;12.22;100.00
10348;BME280;5220;43.192;23.284;2024-02-26T06:29:30;96498.53;;;12.28;100.00
10348;BME280;5220;43.192;23.284;2024-02-26T06:31:56;96499.38;;;12.29;100.00
10348;BME280;5220;43.192;23.284;2024-02-26T06:34:23;96498.97;;;12.33;100.00
10348;BME280;5220;43.192;23.284;2024-02-26T06:36:50;96501.84;;;12.40;100.00
10348;BME280;5220;43.192;23.284;2024-02-26T06:39:18;96502.31;;;12.45;100.00
10348;BME280;5220;43.192;23.284;2024-02-26T06:41:45;96503.94;;;12.46;100.00
10348;BME280;5220;43.192;23.284;2024-02-26T06:44:12;96497.75;;;12.47;100.00
10348;BME280;5220;43.192;23.284;2024-02-26T06:46:39;96502.56;;;12.42;100.00
10348;BME280;5220;43.192;23.284;2024-02-26T06:49:06;96513.00;;;12.52;100.00
10348;BME280;5220;43.192;23.284;2024-02-26T06:51:32;96518.22;;;12.42;100.00
10348;BME280;5220;43.192;23.284;2024-02-26T06:53:59;96512.06;;;12.53;100.00
10348;BME280;5220;43.192;23.284;2024-02-26T06:56:27;96517.41;;;12.51;100.00
10348;BME280;5220;43.192;23.284;2024-02-26T06:58:54;96517.56;;;12.59;100.00
10348;BME280;5220;43.192;23.284;2024-02-26T07:01:20;96515.91;;;12.68;100.00
10348;BME280;5220;43.192;23.284;2024-02-26T07:03:47;96520.03;;;12.70;100.00
10348;BME280;5220;43.192;23.284;2024-02-26T07:06:14;96530.91;;;12.75;100.00
10348;BME280;5220;43.192;23.284;2024-02-26T07:08:40;96523.09;;;12.75;100.00
10348;BME280;5220;43.192;23.284;2024-02-26T07:11:07;96525.13;;;12.62;100.00
10348;BME280;5220;43.192;23.284;2024-02-26T07:13:35;96531.59;;;12.77;100.00
10348;BME280;5220;43.192;23.284;2024-02-26T07:16:02;96524.59;;;12.87;100.00
10348;BME280;5220;43.192;23.284;2024-02-26T07:18:29;96532.69;;;12.75;100.00
10348;BME280;5220;43.192;23.284;2024-02-26T07:20:56;96525.69;;;12.66;100.00
10348;BME280;5220;43.192;23.284;2024-02-26T07:23:22;96532.56;;;12.76;100.00
10348;BME280;5220;43.192;23.284;2024-02-26T07:25:48;96530.75;;;12.18;100.00
10348;BME280;5220;43.192;23.284;2024-02-26T07:28:18;96537.56;;;12.49;100.00
10348;BME280;5220;43.192;23.284;2024-02-26T07:30:46;96532.63;;;12.46;100.00
10348;BME280;5220;43.192;23.284;2024-02-26T07:33:13;96537.72;;;12.48;100.00
10348;BME280;5220;43.192;23.284;2024-02-26T07:35:39;96528.63;;;12.32;100.00
10348;BME280;5220;43.192;23.284;2024-02-26T07:38:06;96535.25;;;12.46;100.00
10348;BME280;5220;43.192;23.284;2024-02-26T07:40:33;96527.97;;;12.50;100.00
10348;BME280;5220;43.192;23.284;2024-02-26T07:42:59;96528.56;;;12.63;100.00
10348;BME280;5220;43.192;23.284;2024-02-26T07:45:26;96527.03;;;12.60;100.00
10348;BME280;5220;43.192;23.284;2024-02-26T07:47:54;96532.94;;;12.62;100.00
10348;BME280;5220;43.192;23.284;2024-02-26T07:50:21;96520.03;;;12.61;100.00
10348;BME280;5220;43.192;23.284;2024-02-26T07:52:48;96525.97;;;12.72;100.00
10348;BME280;5220;43.192;23.284;2024-02-26T07:55:16;96531.19;;;12.82;100.00
10348;BME280;5220;43.192;23.284;2024-02-26T07:57:44;96529.66;;;12.89;100.00
10348;BME280;5220;43.192;23.284;2024-02-26T08:00:11;96534.91;;;12.99;100.00
10348;BME280;5220;43.192;23.284;2024-02-26T08:02:42;96525.44;;;12.98;100.00
10348;BME280;5220;43.192;23.284;2024-02-26T08:05:10;96534.53;;;13.13;100.00
10348;BME280;5220;43.192;23.284;2024-02-26T08:07:36;96538.38;;;13.18;100.00
10348;BME280;5220;43.192;23.284;2024-02-26T08:10:03;96530.97;;;13.14;100.00
10348;BME280;5220;43.192;23.284;2024-02-26T08:12:30;96535.59;;;12.81;100.00
10348;BME280;5220;43.192;23.284;2024-02-26T08:14:57;96536.69;;;12.88;100.00
10348;BME280;5220;43.192;23.284;2024-02-26T08:17:24;96527.06;;;12.79;100.00
10348;BME280;5220;43.192;23.284;2024-02-26T08:19:52;96522.91;;;12.67;100.00
10348;BME280;5220;43.192;23.284;2024-02-26T08:22:20;96528.13;;;12.48;100.00
10348;BME280;5220;43.192;23.284;2024-02-26T08:24:47;96527.88;;;12.70;100.00
10348;BME280;5220;43.192;23.284;2024-02-26T08:27:13;96534.59;;;12.54;100.00
10348;BME280;5220;43.192;23.284;2024-02-26T08:29:40;96532.50;;;12.48;100.00
10348;BME280;5220;43.192;23.284;2024-02-26T08:32:07;96522.34;;;12.45;100.00
10348;BME280;5220;43.192;23.284;2024-02-26T08:34:33;96518.78;;;12.06;100.00
10348;BME280;5220;43.192;23.284;2024-02-26T08:37:00;96524.72;;;12.17;100.00
10348;BME280;5220;43.192;23.284;2024-02-26T08:39:28;96524.47;;;12.20;100.00
10348;BME280;5220;43.192;23.284;2024-02-26T08:41:55;96529.06;;;12.47;100.00
10348;BME280;5220;43.192;23.284;2024-02-26T08:44:21;96529.25;;;12.74;100.00
10348;BME280;5220;43.192;23.284;2024-02-26T08:46:48;96538.03;;;12.83;100.00
10348;BME280;5220;43.192;23.284;2024-02-26T08:49:16;96532.00;;;13.02;100.00
10348;BME280;5220;43.192;23.284;2024-02-26T08:51:43;96543.03;;;13.15;100.00
10348;BME280;5220;43.192;23.284;2024-02-26T08:54:09;96542.94;;;13.26;100.00
10348;BME280;5220;43.192;23.284;2024-02-26T08:56:37;96533.41;;;12.96;100.00
10348;BME280;5220;43.192;23.284;2024-02-26T08:59:04;96537.22;;;13.02;100.00
10348;BME280;5220;43.192;23.284;2024-02-26T09:01:31;96542.38;;;13.13;100.00
10348;BME280;5220;43.192;23.284;2024-02-26T09:03:58;96538.81;;;13.14;100.00
10348;BME280;5220;43.192;23.284;2024-02-26T09:06:25;96530.94;;;12.94;100.00
10348;BME280;5220;43.192;23.284;2024-02-26T09:08:51;96534.66;;;13.11;100.00
10348;BME280;5220;43.192;23.284;2024-02-26T09:11:18;96532.06;;;13.11;100.00
10348;BME280;5220;43.192;23.284;2024-02-26T09:13:46;96528.31;;;13.33;100.00
10348;BME280;5220;43.192;23.284;2024-02-26T09:16:13;96525.72;;;13.23;100.00
10348;BME280;5220;43.192;23.284;2024-02-26T09:18:39;96522.13;;;13.43;100.00
10348;BME280;5220;43.192;23.284;2024-02-26T09:21:06;96529.97;;;13.43;100.00
10348;BME280;5220;43.192;23.284;2024-02-26T09:23:33;96525.31;;;13.28;100.00
10348;BME280;5220;43.192;23.284;2024-02-26T09:26:00;96525.31;;;13.28;100.00
10348;BME280;5220;43.192;23.284;2024-02-26T09:28:27;96531.50;;;13.17;100.00
10348;BME280;5220;43.192;23.284;2024-02-26T09:30:58;96531.38;;;13.28;100.00
10348;BME280;5220;43.192;23.284;2024-02-26T09:33:25;96536.97;;;13.05;100.00
10348;BME280;5220;43.192;23.284;2024-02-26T09:35:51;96534.06;;;13.08;100.00
10348;BME280;5220;43.192;23.284;2024-02-26T09:38:18;96534.25;;;13.35;100.00
10348;BME280;5220;43.192;23.284;2024-02-26T09:40:45;96541.81;;;13.09;100.00
10348;BME280;5220;43.192;23.284;2024-02-26T09:43:14;96537.94;;;13.04;100.00
10348;BME280;5220;43.192;23.284;2024-02-26T09:45:42;96526.81;;;13.21;100.00
10348;BME280;5220;43.192;23.284;2024-02-26T09:48:10;96518.44;;;13.17;100.00
10348;BME280;5220;43.192;23.284;2024-02-26T09:50:41;96528.59;;;13.01;100.00
10348;BME280;5220;43.192;23.284;2024-02-26T09:53:08;96517.72;;;13.06;100.00
10348;BME280;5220;43.192;23.284;2024-02-26T09:55:36;96510.88;;;13.24;100.00
10348;BME280;5220;43.192;23.284;2024-02-26T09:58:05;96515.00;;;13.26;100.00
10348;BME280;5220;43.192;23.284;2024-02-26T10:00:37;96519.25;;;13.37;100.00
10348;BME280;5220;43.192;23.284;2024-02-26T10:03:05;96509.09;;;13.15;100.00
10348;BME280;5220;43.192;23.284;2024-02-26T10:05:35;96516.09;;;13.33;100.00
10348;BME280;5220;43.192;23.284;2024-02-26T10:08:04;96522.81;;;13.45;100.00
10348;BME280;5220;43.192;23.284;2024-02-26T10:10:32;96514.97;;;13.55;100.00
10348;BME280;5220;43.192;23.284;2024-02-26T10:12:59;96506.72;;;13.60;100.00
10348;BME280;5220;43.192;23.284;2024-02-26T10:15:26;96505.44;;;13.64;100.00
10348;BME280;5220;43.192;23.284;2024-02-26T10:17:53;96516.84;;;13.72;100.00
10348;BME280;5220;43.192;23.284;2024-02-26T10:20:20;96506.19;;;13.93;100.00
10348;BME280;5220;43.192;23.284;2024-02-26T10:22:50;96502.56;;;14.04;100.00
10348;BME280;5220;43.192;23.284;2024-02-26T10:25:17;96496.41;;;13.95;100.00
10348;BME280;5220;43.192;23.284;2024-02-26T10:27:45;96491.47;;;13.82;100.00
10348;BME280;5220;43.192;23.284;2024-02-26T10:30:19;96495.81;;;14.01;100.00
10348;BME280;5220;43.192;23.284;2024-02-26T10:32:47;96497.88;;;14.07;100.00
10348;BME280;5220;43.192;23.284;2024-02-26T10:35:14;96489.75;;;14.10;100.00
10348;BME280;5220;43.192;23.284;2024-02-26T10:37:41;96481.31;;;14.16;100.00
10348;BME280;5220;43.192;23.284;2024-02-26T10:40:11;96490.44;;;14.39;100.00
10348;BME280;5220;43.192;23.284;2024-02-26T10:42:38;96483.66;;;14.46;100.00
10348;BME280;5220;43.192;23.284;2024-02-26T10:45:06;96486.84;;;14.40;100.00
10348;BME280;5220;43.192;23.284;2024-02-26T10:47:34;96492.16;;;14.48;100.00
10348;BME280;5220;43.192;23.284;2024-02-26T10:50:02;96479.09;;;14.48;100.00
10348;BME280;5220;43.192;23.284;2024-02-26T10:52:31;96481.81;;;14.74;100.00
10348;BME280;5220;43.192;23.284;2024-02-26T10:55:00;96485.84;;;14.86;100.00
10348;BME280;5220;43.192;23.284;2024-02-26T10:57:33;96486.84;;;15.03;100.00
10348;BME280;5220;43.192;23.284;2024-02-26T11:00:00;96477.38;;;15.10;100.00
10348;BME280;5220;43.192;23.284;2024-02-26T11:02:31;96472.75;;;14.86;100.00
10348;BME280;5220;43.192;23.284;2024-02-26T11:04:58;96468.72;;;15.10;100.00
10348;BME280;5220;43.192;23.284;2024-02-26T11:07:26;96471.38;;;15.18;100.00
10348;BME280;5220;43.192;23.284;2024-02-26T11:09:54;96475.63;;;15.36;100.00
10348;BME280;5220;43.192;23.284;2024-02-26T11:12:22;96467.19;;;14.54;100.00
10348;BME280;5220;43.192;23.284;2024-02-26T11:14:52;96462.13;;;14.70;100.00
10348;BME280;5220;43.192;23.284;2024-02-26T11:17:21;96463.63;;;15.08;100.00
10348;BME280;5220;43.192;23.284;2024-02-26T11:19:49;96467.22;;;14.89;100.00
10348;BME280;5220;43.192;23.284;2024-02-26T11:22:16;96461.81;;;15.08;100.00
10348;BME280;5220;43.192;23.284;2024-02-26T11:24:44;96462.66;;;15.09;100.00
10348;BME280;5220;43.192;23.284;2024-02-26T11:27:11;96459.47;;;15.23;100.00
10348;BME280;5220;43.192;23.284;2024-02-26T11:29:41;96466.16;;;15.18;100.00
10348;BME280;5220;43.192;23.284;2024-02-26T11:32:11;96464.56;;;15.25;100.00
10348;BME280;5220;43.192;23.284;2024-02-26T11:34:38;96461.16;;;15.32;100.00
10348;BME280;5220;43.192;23.284;2024-02-26T11:37:10;96469.47;;;15.45;100.00
10348;BME280;5220;43.192;23.284;2024-02-26T11:39:37;96458.91;;;15.55;100.00
10348;BME280;5220;43.192;23.284;2024-02-26T11:42:05;96456.66;;;15.42;100.00
10348;BME280;5220;43.192;23.284;2024-02-26T11:44:34;96457.94;;;15.56;100.00
10348;BME280;5220;43.192;23.284;2024-02-26T11:47:11;96461.56;;;15.63;100.00
10348;BME280;5220;43.192;23.284;2024-02-26T11:49:38;96458.94;;;15.63;100.00
10348;BME280;5220;43.192;23.284;2024-02-26T11:52:06;96463.19;;;15.38;100.00
10348;BME280;5220;43.192;23.284;2024-02-26T11:54:43;96460.78;;;15.63;100.00
10348;BME280;5220;43.192;23.284;2024-02-26T11:57:24;96460.50;;;15.48;100.00
10348;BME280;5220;43.192;23.284;2024-02-26T11:59:51;96454.28;;;15.75;100.00
10348;BME280;5220;43.192;23.284;2024-02-26T12:02:43;96458.19;;;15.71;100.00
10348;BME280;5220;43.192;23.284;2024-02-26T12:05:11;96457.66;;;15.67;100.00
10348;BME280;5220;43.192;23.284;2024-02-26T12:07:47;96459.75;;;15.89;100.00
10348;BME280;5220;43.192;23.284;2024-02-26T12:10:23;96464.97;;;15.81;100.00
10348;BME280;5220;43.192;23.284;2024-02-26T12:12:53;96465.31;;;15.86;100.00
10348;BME280;5220;43.192;23.284;2024-02-26T12:15:22;96471.50;;;15.51;100.00
10348;BME280;5220;43.192;23.284;2024-02-26T12:17:51;96469.03;;;15.50;100.00
10348;BME280;5220;43.192;23.284;2024-02-26T12:20:18;96466.38;;;15.24;100.00
10348;BME280;5220;43.192;23.284;2024-02-26T12:22:46;96478.09;;;15.38;100.00
10348;BME280;5220;43.192;23.284;2024-02-26T12:25:14;96472.13;;;15.28;100.00
10348;BME280;5220;43.192;23.284;2024-02-26T12:27:40;96473.66;;;15.38;100.00
10348;BME280;5220;43.192;23.284;2024-02-26T12:30:08;96461.75;;;15.00;100.00
10348;BME280;5220;43.192;23.284;2024-02-26T12:32:35;96464.50;;;15.17;100.00
10348;BME280;5220;43.192;23.284;2024-02-26T12:35:05;96471.13;;;15.29;100.00
10348;BME280;5220;43.192;23.284;2024-02-26T12:37:32;96465.75;;;15.30;100.00
10348;BME280;5220;43.192;23.284;2024-02-26T12:40:02;96471.44;;;15.26;100.00
10348;BME280;5220;43.192;23.284;2024-02-26T12:42:29;96463.34;;;15.37;100.00
10348;BME280;5220;43.192;23.284;2024-02-26T12:44:58;96461.50;;;15.12;100.00
10348;BME280;5220;43.192;23.284;2024-02-26T12:47:24;96458.94;;;15.20;100.00
10348;BME280;5220;43.192;23.284;2024-02-26T12:49:51;96461.94;;;15.25;100.00
10348;BME280;5220;43.192;23.284;2024-02-26T12:52:19;96460.16;;;15.07;100.00